Latest Weather Observations for Hopetoun Airport

IDV60801

Issued at 10:31 pm EST Thursday 3 September 2015 (issued every 30 minutes, with the page automatically refreshed every 10 minutes)

About weather observations | Map of weather stations | Latest weather observations for VIC | Other Formats
Station Details ID: 077010 Name: HOPETOUN AIRPORT Lat: -35.72 Lon: 142.36 Height: 77.3 m
Data from the previous 72 hours. | See also: Recent months at Hopetoun Airport
Date/Time
EST
Temp
°C
App
Temp
°C
Dew
Point
Rel
Hum
%
Delta-T
°C
Wind Press
QNH
hPa
Press
MSL
hPa
Rain
since 9 am
mm
Dir
 
Spd
km/h
Gust
km/h
Spd
kts
Gust
kts
03/10:30pm 8.8 6.5 7.3 90 0.7 S 9 13 5 7 1023.9 1023.9 0.2
03/10:00pm 9.7 6.7 7.6 87 1.0 S 13 17 7 9 1023.6 1023.6 0.2
03/09:30pm 10.7 7.7 7.9 83 1.4 S 13 20 7 11 1023.3 1023.3 0.2
03/09:00pm 11.7 8.2 8.6 81 1.5 S 17 26 9 14 1022.8 1022.8 0.2
03/08:30pm 12.0 9.9 9.9 87 1.1 S 11 17 6 9 1022.5 1022.5 0.2
03/08:00pm 12.1 10.4 10.0 87 1.1 S 9 15 5 8 1022.0 1022.0 0.2
03/07:30pm 12.7 11.1 10.2 85 1.3 SSW 9 13 5 7 1021.7 1021.7 0.2
03/07:00pm 12.8 11.9 10.7 87 1.1 SSW 6 6 3 3 1021.3 1021.3 0.2
03/06:30pm 13.6 12.4 10.2 80 1.8 S 7 9 4 5 1020.8 1020.8 0.2
03/06:00pm 14.0 12.3 9.8 76 2.2 S 9 13 5 7 1020.3 1020.3 0.2
03/05:30pm 14.3 10.9 9.3 72 2.6 S 17 24 9 13 1020.0 1020.0 0.2
03/05:00pm 14.6 11.5 10.2 75 2.3 SSW 17 26 9 14 1019.5 1019.5 0.2
03/04:30pm 14.9 10.7 9.9 72 2.6 SSW 22 35 12 19 1019.1 1019.1 0.2
03/04:00pm 16.1 12.4 9.3 64 3.5 SSW 19 28 10 15 1018.6 1018.6 0.0
03/03:30pm 15.7 11.9 9.1 65 3.4 SSW 19 26 10 14 1018.3 1018.3 0.0
03/03:00pm 15.9 13.8 9.8 67 3.2 SSW 11 17 6 9 1017.9 1017.9 0.0
03/02:30pm 14.9 12.2 9.1 68 3.0 S 13 20 7 11 1017.5 1017.5 0.0
03/02:00pm 15.2 12.7 9.8 70 2.8 SSW 13 22 7 12 1017.4 1017.4 0.0
03/01:30pm 15.3 11.7 9.9 70 2.8 S 19 28 10 15 1017.3 1017.3 0.0
03/01:00pm 15.4 11.2 9.7 69 3.0 S 22 35 12 19 1017.0 1017.0 0.0
03/12:30pm 15.0 10.8 9.8 71 2.7 S 22 32 12 17 1017.0 1017.0 0.0
03/12:00pm 15.4 9.4 10.2 71 2.7 S 32 43 17 23 1016.8 1016.8 0.0
03/11:30am 14.6 10.1 10.2 75 2.3 S 24 33 13 18 1016.5 1016.5 0.0
03/11:00am 13.4 8.9 10.0 80 1.8 S 24 33 13 18 1016.3 1016.3 0.0
03/10:30am 12.7 8.6 10.1 84 1.3 S 22 33 12 18 1016.1 1016.2 0.0
03/10:00am 11.9 7.7 9.6 86 1.2 S 22 33 12 18 1015.7 1015.8 0.0
03/09:30am 11.6 7.9 10.0 90 0.8 SSW 20 30 11 16 1015.4 1015.5 0.0
03/09:00am 10.9 8.1 10.0 94 0.5 SSW 15 24 8 13 1014.7 1014.8 6.2
03/08:30am 9.9 6.0 9.3 96 0.3 SSW 20 26 11 14 1013.9 1013.9 6.2
03/08:00am 9.4 6.0 9.1 98 0.1 SW 17 24 9 13 1013.0 1013.0 6.2
03/07:30am 8.9 5.8 8.8 99 0.0 SW 15 19 8 10 1012.3 1012.3 6.2
03/07:00am 8.6 5.0 8.5 99 0.0 SW 17 20 9 11 1011.2 1011.2 6.2
03/06:30am 8.8 4.7 8.7 99 0.0 SSW 20 26 11 14 1010.6 1010.6 6.2
03/06:00am 8.0 4.3 7.9 99 0.0 SW 17 22 9 12 1009.8 1009.8 6.2
03/05:30am 7.3 4.2 7.2 99 0.0 SW 13 15 7 8 1009.0 1009.0 6.2
03/05:00am 7.2 4.1 7.1 99 0.0 SW 13 15 7 8 1008.6 1008.6 6.2
03/04:30am 7.9 4.2 7.8 99 0.0 SW 17 20 9 11 1008.3 1008.3 6.2
03/04:00am 8.3 4.7 8.2 99 0.0 SSW 17 24 9 13 1008.1 1008.1 6.2
03/03:30am 8.3 4.3 8.2 99 0.0 SSW 19 28 10 15 1007.8 1007.8 6.2
03/03:00am 8.1 3.8 8.0 99 0.0 SSW 20 32 11 17 1007.6 1007.6 6.2
03/02:30am 7.3 3.0 7.2 99 0.0 SW 19 24 10 13 1007.6 1007.6 6.2
03/02:00am 7.1 3.6 7.0 99 0.0 SW 15 20 8 11 1007.5 1007.5 6.2
03/01:30am 6.9 4.1 6.8 99 0.0 SSW 11 15 6 8 1007.3 1007.3 6.2
03/01:00am 6.7 3.4 6.6 99 0.0 SSW 13 17 7 9 1007.2 1007.2 6.2
03/12:30am 5.7 3.0 5.6 99 0.0 SSW 9 13 5 7 1007.0 1007.0 6.2
03/12:00am 4.8 2.3 4.7 99 0.0 SW 7 9 4 5 1006.6 1006.6 6.2
 
Date/Time
EST
Temp
°C
App
Temp
°C
Dew
Point
Rel
Hum
%
Delta-T
°C
Wind Press
QNH
hPa
Press
MSL
hPa
Rain
since 9 am
mm
Dir
 
Spd
km/h
Gust
km/h
Spd
kts
Gust
kts
02/11:30pm 6.2 4.2 6.1 99 0.0 S 6 7 3 4 1006.5 1006.5 6.0
02/11:00pm 7.7 6.8 7.6 99 0.0 SSE 2 4 1 2 1006.7 1006.7 6.0
02/10:30pm 8.6 6.9 8.5 99 0.0 S 7 9 4 5 1006.5 1006.5 6.0
02/10:00pm 5.8 4.4 5.5 98 0.1 ESE 2 4 1 2 1006.3 1006.3 6.0
02/09:30pm 6.0 4.3 5.7 98 0.1 SW 4 6 2 3 1006.1 1006.1 6.0
02/09:00pm 7.8 6.1 7.5 98 0.1 W 6 7 3 4 1005.8 1005.8 6.0
02/08:30pm 7.9 7.3 7.5 97 0.2 CALM 0 0 0 0 1005.7 1005.7 6.0
02/08:00pm 7.1 6.2 6.2 94 0.4 CALM 0 2 0 1 1005.5 1005.5 6.0
02/07:30pm 9.1 7.4 8.3 95 0.4 NW 7 7 4 4 1005.2 1005.2 6.0
02/07:00pm 9.5 8.0 8.3 92 0.6 NNE 6 6 3 3 1005.0 1005.0 6.0
02/06:30pm 11.0 8.9 9.6 91 0.7 NNE 11 15 6 8 1005.0 1005.0 6.0
02/06:00pm 11.0 8.1 9.8 92 0.6 NNE 15 19 8 10 1004.6 1004.6 6.0
02/05:30pm 11.2 8.8 10.1 93 0.6 NNE 13 20 7 11 1004.6 1004.6 5.8
02/05:00pm 11.0 8.9 9.9 93 0.6 NNE 11 17 6 9 1004.4 1004.4 5.8
02/04:30pm 11.2 8.8 10.1 93 0.6 NE 13 17 7 9 1004.6 1004.6 5.6
02/04:00pm 11.2 9.2 10.1 93 0.6 ENE 11 13 6 7 1004.9 1004.9 5.6
02/03:30pm 10.7 9.1 10.1 96 0.3 ESE 9 11 5 6 1004.7 1004.7 5.6
02/03:00pm 10.3 7.4 9.8 97 0.3 ESE 15 22 8 12 1004.3 1004.3 5.6
02/02:30pm 10.1 7.9 9.5 96 0.3 ESE 11 15 6 8 1005.0 1005.0 5.2
02/02:00pm 10.1 8.6 9.3 95 0.4 SSE 7 13 4 7 1005.5 1005.5 5.0
02/01:30pm 10.2 8.7 9.3 94 0.4 SW 7 9 4 5 1007.0 1007.0 3.6
02/01:00pm 10.3 7.2 8.9 91 0.7 W 15 19 8 10 1007.9 1007.9 1.6
02/12:30pm 10.9 8.7 9.2 89 0.9 NNW 11 22 6 12 1008.0 1008.0 1.2
02/12:00pm 10.9 8.9 8.8 87 1.0 NE 9 13 5 7 1007.6 1007.6 1.0
02/11:30am 10.8 8.0 8.4 85 1.2 ENE 13 17 7 9 1008.0 1008.0 0.8
02/11:00am 10.7 7.9 8.5 86 1.1 ENE 13 17 7 9 1008.3 1008.3 0.8
02/10:30am 10.7 7.9 8.6 87 1.0 NE 13 19 7 10 1008.6 1008.6 0.8
02/10:00am 10.1 6.9 8.4 89 0.8 ENE 15 20 8 11 1008.5 1008.5 0.8
02/09:30am 9.7 6.1 8.5 92 0.6 NE 17 22 9 12 1008.9 1008.9 0.4
02/09:00am 9.8 5.8 8.1 89 0.8 NE 19 24 10 13 1009.6 1009.6 1.2
02/08:30am 10.0 7.8 7.9 87 1.0 NE 9 13 5 7 1009.9 1009.9 1.0
02/08:00am 10.1 7.0 7.2 82 1.4 N 13 19 7 10 1010.2 1010.2 1.0
02/07:30am 10.6 7.3 6.6 76 1.9 NNE 13 19 7 10 1009.9 1009.9 0.2
02/07:00am 10.7 6.6 6.3 74 2.1 NNE 17 22 9 12 1010.0 1010.0 0.2
02/06:30am 11.0 6.4 5.5 69 2.5 NE 19 22 10 12 1009.3 1009.3 0.0
02/06:00am 11.3 6.6 5.0 65 2.9 NE 19 24 10 13 1009.1 1009.1 0.0
02/05:30am 11.2 6.5 5.1 66 2.8 ENE 19 24 10 13 1009.3 1009.3 0.0
02/05:00am 10.7 8.2 5.0 68 2.6 NE 7 13 4 7 1009.7 1009.7 0.0
02/04:30am 10.8 6.0 4.9 67 2.7 ENE 19 22 10 12 1009.8 1009.8 0.0
02/04:00am 11.1 6.7 4.6 64 2.9 NE 17 20 9 11 1009.9 1009.9 0.0
02/03:30am 12.0 7.6 2.5 52 4.1 NE 15 20 8 11 1010.1 1010.1 0.0
02/03:00am 11.8 6.9 2.3 52 4.1 NE 17 20 9 11 1010.3 1010.3 0.0
02/02:30am 11.7 7.2 1.9 51 4.2 NE 15 19 8 10 1010.6 1010.6 0.0
02/02:00am 11.8 7.2 1.4 49 4.4 NE 15 19 8 10 1010.8 1010.8 0.0
02/01:30am 11.9 7.3 1.3 48 4.5 NE 15 19 8 10 1011.0 1011.0 0.0
02/01:00am 12.4 7.4 1.1 46 4.8 NNE 17 22 9 12 1011.1 1011.1 0.0
02/12:30am 11.8 6.8 1.2 48 4.5 NE 17 20 9 11 1011.3 1011.3 0.0
02/12:00am 11.1 6.1 1.1 50 4.2 NE 17 20 9 11 1011.4 1011.4 0.0
 
Date/Time
EST
Temp
°C
App
Temp
°C
Dew
Point
Rel
Hum
%
Delta-T
°C
Wind Press
QNH
hPa
Press
MSL
hPa
Rain
since 9 am
mm
Dir
 
Spd
km/h
Gust
km/h
Spd
kts
Gust
kts
01/11:30pm 10.8 6.5 0.8 50 4.1 NE 13 17 7 9 1011.9 1011.9 0.0
01/11:00pm 10.9 6.2 0.6 49 4.3 NE 15 19 8 10 1011.9 1011.9 0.0
01/10:30pm 10.1 5.7 0.4 51 4.0 NE 13 17 7 9 1012.0 1012.0 0.0
01/10:00pm 10.9 6.5 0.6 49 4.3 NE 13 17 7 9 1012.0 1012.0 0.0
01/09:30pm 10.7 6.3 0.4 49 4.2 NE 13 15 7 8 1011.8 1011.8 0.0
01/09:00pm 11.8 7.5 0.9 47 4.6 NE 13 17 7 9 1012.0 1012.0 0.0
01/08:30pm 13.4 8.7 0.8 42 5.4 NNE 15 19 8 10 1012.0 1012.0 0.0
01/08:00pm 13.8 9.6 1.5 43 5.3 NNE 13 17 7 9 1011.9 1011.9 0.0
01/07:30pm 13.6 9.8 1.6 44 5.2 NE 11 17 6 9 1011.6 1011.6 0.0
01/07:00pm 13.5 9.3 1.5 44 5.2 NE 13 15 7 8 1011.4 1011.4 0.0
01/06:30pm 13.4 9.3 0.1 40 5.6 NE 11 13 6 7 1011.3 1011.3 0.0
01/06:00pm 17.5 13.5 0.2 31 7.5 NNE 11 15 6 8 1011.2 1011.2 0.0
01/05:30pm 19.4 14.6 0.4 28 8.4 NNE 15 20 8 11 1011.2 1011.2 0.0
01/05:00pm 20.6 15.9 1.0 27 8.9 N 15 19 8 10 1011.0 1011.0 0.0
01/04:30pm 21.1 16.8 0.9 26 9.2 N 13 22 7 12 1011.1 1011.1 0.0
01/04:00pm 20.7 15.9 0.5 26 9.1 NNE 15 22 8 12 1011.3 1011.3 0.0
01/03:30pm 20.6 15.4 0.4 26 9.1 NNE 17 24 9 13 1011.5 1011.5 0.0
01/03:00pm 20.8 16.5 1.1 27 9.0 N 13 22 7 12 1011.9 1011.9 0.0
01/02:30pm 21.0 15.9 0.8 26 9.2 N 17 26 9 14 1012.2 1012.2 0.0
01/02:00pm 20.8 16.4 0.6 26 9.1 N 13 22 7 12 1012.4 1012.4 0.0
01/01:30pm 20.1 16.1 0.5 27 8.8 N 11 20 6 11 1013.0 1013.0 0.0
01/01:00pm 19.9 15.3 1.4 29 8.4 N 15 28 8 15 1013.6 1013.6 0.0
01/12:30pm 19.6 14.7 2.0 31 8.1 N 17 28 9 15 1014.3 1014.4 0.0
01/12:00pm 18.6 14.1 2.0 33 7.6 N 15 22 8 12 1015.2 1015.3 0.0
01/11:30am 17.3 12.8 2.1 36 6.9 N 15 22 8 12 1015.7 1015.8 0.0
01/11:00am 16.0 12.0 3.1 42 5.9 NNE 13 20 7 11 1016.1 1016.2 0.0
01/10:30am 14.5 9.9 3.9 49 4.9 NNE 17 24 9 13 1016.3 1016.3 0.0
01/10:00am 12.6 8.0 3.8 55 4.0 NNE 17 20 9 11 1016.4 1016.4 0.0
01/09:30am 10.8 5.7 3.1 59 3.4 NE 19 24 10 13 1016.5 1016.6 0.0
01/09:00am 8.9 4.2 3.1 67 2.5 NE 17 22 9 12 1016.9 1017.0 0.0
01/08:30am 6.6 2.1 2.3 74 1.8 NE 15 19 8 10 1017.0 1017.1 0.0
01/08:00am 4.9 1.2 2.1 82 1.1 NE 11 13 6 7 1017.1 1017.2 0.0
01/07:30am 1.8 -1.4 0.6 92 0.4 NE 7 9 4 5 1017.1 1017.2 0.0
01/07:00am 0.0 -3.5 -1.0 93 0.4 ENE 7 9 4 5 1017.1 1017.2 0.0
01/06:30am -0.7 -4.6 -1.8 92 0.3 ENE 9 9 5 5 1016.7 1016.8 0.0
01/06:00am -0.4 -3.7 -1.5 92 0.4 ENE 6 6 3 3 1016.8 1016.9 0.0
01/05:30am -0.7 -4.7 -2.0 91 0.4 E 9 9 5 5 1016.7 1016.8 0.0
01/05:00am -0.2 -3.5 -1.3 92 0.4 E 6 7 3 4 1016.6 1016.7 0.0
01/04:30am 0.1 -3.2 -1.2 91 0.5 E 6 6 3 3 1016.7 1016.8 0.0
01/04:00am 0.8 -2.4 -0.6 90 0.5 ESE 6 7 3 4 1016.7 1016.8 0.0
01/03:30am 1.6 -1.5 0.1 90 0.6 ESE 6 6 3 3 1017.0 1017.1 0.0
01/03:00am 1.6 -1.6 -0.2 88 0.7 ESE 6 6 3 3 1017.2 1017.3 0.0
01/02:30am 2.2 -0.8 0.6 89 0.6 SE 6 6 3 3 1017.5 1017.6 0.0
01/02:00am 0.5 -2.9 -1.9 84 0.9 ESE 6 6 3 3 1017.8 1017.9 0.0
01/01:30am 0.9 -2.1 -1.5 84 0.8 ESE 4 6 2 3 1018.1 1018.2 0.0
01/01:00am 1.9 -1.0 -0.8 82 1.0 ESE 4 6 2 3 1018.2 1018.3 0.0
01/12:30am 3.7 0.5 0.9 82 1.1 SE 7 9 4 5 1018.3 1018.4 0.0
01/12:00am 3.8 0.6 0.7 80 1.2 SE 7 9 4 5 1018.5 1018.6 0.0
 
Date/Time
EST
Temp
°C
App
Temp
°C
Dew
Point
Rel
Hum
%
Delta-T
°C
Wind Press
QNH
hPa
Press
MSL
hPa
Rain
since 9 am
mm
Dir
 
Spd
km/h
Gust
km/h
Spd
kts
Gust
kts
31/11:30pm 3.9 0.8 0.4 78 1.3 SE 6 7 3 4 1018.7 1018.8 0.0
31/11:00pm 4.1 0.8 0.3 76 1.4 ESE 7 9 4 5 1018.8 1018.9 0.0

Other Formats:

Comma delimited format used in spreadsheet applications
http://www.bom.gov.au/fwo/IDV60801/IDV60801.94838.axf

JavaScript Object Notation format (JSON) in row-major order
http://www.bom.gov.au/fwo/IDV60801/IDV60801.94838.json